This is the latest recevied weather packets stored in our database for station/object KB1LTW-13. If no packets are shown the sender has not sent any weather packets the latest 10 day(s).
| Time | Temp. | Humidity | Pressure | Rain* | Wind** | Luminosity | Snow |
|---|---|---|---|---|---|---|---|
| 1778002876 | 26.11° C | 39% | 1010.6 hPa | 0 mm | - | 381 W/m² | - |
| 1778001678 | 25.56° C | 39% | 1010.9 hPa | 0 mm | - | 785 W/m² | - |
| 1777999878 | 25.56° C | 41% | 1011.1 hPa | 0 mm | - | 785 W/m² | - |
| 1777998678 | 25.56° C | 44% | 1011.6 hPa | 0 mm | - | 789 W/m² | - |
| 1777996282 | 25° C | 45% | 1012.1 hPa | 0 mm | - | 785 W/m² | - |
| 1777995086 | 23.89° C | 45% | 1012.2 hPa | 0 mm | - | 765 W/m² | - |
| 1777994487 | 23.33° C | 47% | 1012.3 hPa | 0 mm | - | 751 W/m² | - |
| 1777988500 | 16.67° C | 64% | 1012.6 hPa | 0 mm | - | 212 W/m² | - |
| 1777986682 | 16.11° C | 66% | 1012.9 hPa | 0 mm | - | 200 W/m² | - |
| 1777984901 | 16.67° C | 61% | 1013.2 hPa | 0 mm | - | 130 W/m² | - |
| 1777974084 | 9.44° C | 83% | 1012.2 hPa | 0 mm | - | 1 W/m² | - |
| 1777972277 | 10° C | 79% | 1012.3 hPa | 0 mm | - | 0 W/m² | - |
| 1777971683 | 10° C | 80% | 1012.2 hPa | 0 mm | - | 0 W/m² | - |
| 1777965677 | 10.56° C | 74% | 1012.5 hPa | 0 mm | - | 0 W/m² | - |
| 1777963876 | 11.11° C | 71% | 1012.6 hPa | 0 mm | - | 0 W/m² | - |
| 1777963276 | 11.67° C | 70% | 1012.3 hPa | 0 mm | - | 0 W/m² | - |
| 1777957283 | 12.78° C | 64% | 1013.1 hPa | 0 mm | - | 0 W/m² | - |
| 1777956678 | 12.78° C | 64% | 1013.3 hPa | 0 mm | - | 0 W/m² | - |
| 1777956104 | 12.78° C | 63% | 1013.3 hPa | 0 mm | - | 0 W/m² | - |
| 1777955499 | 13.33° C | 63% | 1013.4 hPa | 0 mm | - | 0 W/m² | - |
| 1777953677 | 13.33° C | 62% | 1013.3 hPa | 0 mm | - | 0 W/m² | - |
| 1777950099 | 12.78° C | 63% | 1013.2 hPa | 0 mm | - | 0 W/m² | - |
| 1777949479 | 12.78° C | 63% | 1013.1 hPa | 0 mm | - | 0 W/m² | - |
| 1777946481 | 13.33° C | 60% | 1013.1 hPa | 0 mm | - | 0 W/m² | - |
| 1777944083 | 13.89° C | 56% | 1012.8 hPa | 0 mm | - | 0 W/m² | - |
* Rain latest hour (hover to see other rain measurements)
** Current wind speed in m/s (hover to see current wind gust speed)